の過去48時間の天気

Polyarny

現在時刻: 2/7 05:05 +09 (2/6 20:05 UTC) 以下の時間は現地時間です。

過去48時間のMETAR気象情報
時間 風向 風速(m/s) 視程 気温(℃) 湿度(%) 気圧(hPa) 天気現象
7 04:00 西北西 1 10km以上 -39 73 1016
7 03:00 静穏 0 10km以上 -39 73 1016
7 02:00 静穏 0 10km以上 -39 66 1016
7 01:00 西北西 1 10km以上 -39 66 1016
7 00:00 西北西 1 10km以上 -38 73 1016
6 23:00 西北西 1 10km以上 -37 66 1016
6 22:00 西北西 2 10km以上 -36 67 1016
6 21:00 西 1 10km以上 -36 74 1016
6 20:00 西 1 10km以上 -35 67 1016
6 19:30 西北西 2 10km以上 -35 67 1016
6 19:00 西 1 10km以上 -35 74 1016
6 18:30 西 1 10km以上 -35 74 1016
6 18:00 西 1 10km以上 -35 74 1016
6 17:30 西 2 10km以上 -35 74 1016
6 17:00 西 2 10km以上 -34 74 1015
6 16:30 西 1 10km以上 -34 74 1015
6 16:00 西 1 10km以上 -33 67 1015
6 15:30 西 2 10km以上 -33 67 1015
6 15:00 西 2 10km以上 -33 67 1015
6 14:30 西 1 10km以上 -33 67 1015
6 14:00 西 1 10km以上 -33 67 1015 弱い雪
6 13:30 西 1 10km以上 -34 67 1015 弱い雪
6 13:00 西 2 10km以上 -35 67 1015 弱い雪
6 12:30 西 2 10km以上 -35 67 1015 弱い雪
6 12:00 西 2 10km以上 -35 67 1015 弱い雪
6 11:30 西 2 10km以上 -35 67 1015
6 11:00 西 2 10km以上 -35 67 1015
6 10:30 西 2 10km以上 -35 67 1015
6 10:00 西 1 10km以上 -35 67 1015
6 09:30 西 2 10km以上 -35 67 1016
6 09:00 西 2 10km以上 -35 67 1016
6 08:30 西 2 10km以上 -36 74 1016
6 08:00 西 2 10km以上 -36 74 1016
6 07:30 西 2 10km以上 -36 74 1016
6 07:00 西 2 10km以上 -36 74 1016 弱い雪
6 06:00 西 2 10km以上 -36 74 1016 弱い雪
6 05:00 西 2 10km以上 -36 74 1016 弱い雪
UERP 061900Z 29001MPS CAVOK M39/M42 Q1016 R35/490239 NOSIG RMK QFE718
UERP 061800Z 00000MPS CAVOK M39/M42 Q1016 R35/490239 NOSIG RMK QFE718
UERP 061700Z 00000MPS CAVOK M39/M43 Q1016 R35/490239 NOSIG RMK QFE718
UERP 061600Z 30001MPS CAVOK M39/M43 Q1016 R35/490239 NOSIG RMK QFE718
UERP 061500Z 30001MPS CAVOK M38/M41 Q1016 R35/490239 NOSIG RMK QFE718
UERP 061400Z 30001MPS CAVOK M37/M41 Q1016 R35/490239 NOSIG RMK QFE718
UERP 061300Z 29002MPS CAVOK M36/M40 Q1016 R35/490239 NOSIG RMK QFE718
UERP 061200Z 28001MPS CAVOK M36/M39 Q1016 R35/490239 NOSIG RMK QFE718
UERP 061100Z 28001MPS 9999 SCT033 BKN100 M35/M39 Q1016 R35/490239 NOSIG RMK QFE718
UERP 061030Z 29002MPS 9999 SCT033 BKN100 M35/M39 Q1016 R35/490239 NOSIG RMK QFE718
UERP 061000Z 28001MPS 9999 SCT033 BKN100 M35/M38 Q1016 R35/490239 NOSIG RMK QFE718
UERP 060930Z 28001MPS 9999 SCT033 BKN100 M35/M38 Q1016 R35/490239 NOSIG RMK QFE718
UERP 060900Z 28001MPS 9999 SCT033 BKN100 M35/M38 Q1016 R35/490239 NOSIG RMK QFE718
UERP 060830Z 28002MPS 9999 SCT033 BKN100 M35/M38 Q1016 R35/490239 NOSIG RMK QFE718
UERP 060800Z 27002MPS 9999 SCT033 BKN100 M34/M37 Q1015 R35/490239 NOSIG RMK QFE717
UERP 060730Z 27001MPS 9999 SCT033 BKN100 M34/M37 Q1015 R35/490239 NOSIG RMK QFE717
UERP 060700Z 27001MPS 9999 SCT033 BKN100 M33/M37 Q1015 R35/490239 NOSIG RMK QFE717
UERP 060630Z 27002MPS 9999 SCT033 BKN100 M33/M37 Q1015 R35/490239 NOSIG RMK QFE717
UERP 060600Z 27002MPS 9999 SCT033 BKN100 M33/M37 Q1015 R35/490239 NOSIG RMK QFE717
UERP 060530Z 26001MPS 9999 BKN033 BKN100 M33/M37 Q1015 R35/490239 NOSIG RMK QFE717
UERP 060500Z 26001MPS 9999 -SN BKN033 BKN100 M33/M37 Q1015 R35/490239 NOSIG RMK QFE717
UERP 060430Z 26001MPS 9999 -SN BKN031 BKN100 M34/M38 Q1015 R35/490239 NOSIG RMK QFE717
UERP 060400Z 26002MPS 9999 -SN BKN031 BKN100 M35/M39 Q1015 R35/490239 NOSIG RMK QFE717
UERP 060330Z 27002MPS 9999 -SN BKN033 BKN100 M35/M39 Q1015 R35/490239 NOSIG RMK QFE717
UERP 060300Z 27002MPS 9999 -SN BKN035 BKN100 M35/M39 Q1015 R35/490239 NOSIG RMK QFE717
UERP 060230Z 27002MPS 9999 BKN033 OVC100 M35/M39 Q1015 R35/490239 NOSIG RMK QFE717
UERP 060200Z 27002MPS 9999 BKN033 OVC100 M35/M39 Q1015 R35/490239 NOSIG RMK QFE717
UERP 060130Z 28002MPS 9999 BKN035 OVC100 M35/M39 Q1015 R35/490239 NOSIG RMK QFE717
UERP 060100Z 28001MPS 9999 BKN031 OVC100 M35/M39 Q1015 R35/490239 NOSIG RMK QFE717
UERP 060030Z 27002MPS 9999 BKN030 OVC100 M35/M39 Q1016 R35/490239 NOSIG RMK QFE717
UERP 060000Z 27002MPS 9999 BKN028 OVC100 M35/M39 Q1016 R35/490239 NOSIG RMK QFE718
UERP 052330Z 27002MPS 9999 BKN026 OVC100 M36/M39 Q1016 R35/490239 NOSIG RMK QFE718
UERP 052300Z 27002MPS 9999 BKN026 OVC100 M36/M39 Q1016 R35/490239 NOSIG RMK QFE718
UERP 052230Z 27002MPS 9999 BKN027 OVC100 M36/M39 Q1016 NOSIG RMK QFE718
UERP 052200Z 27002MPS 9999 -SN SCT026 BKN100 M36/M39 Q1016 NOSIG RMK QFE718
UERP 052100Z 27002MPS 9999 -SN SCT020 OVC100 M36/M39 Q1016 NOSIG RMK QFE718
UERP 052000Z 27002MPS 9999 -SN SCT020 OVC100 M36/M39 Q1016 NOSIG RMK QFE718